BOX79KL LEMD-GMMN
Flight info
| Callsign | BOX79KL |
|---|---|
| Flight time | 1h 25m |
| Altitude | 33000 |
| Route | VTB DCT INPAN DCT CRISA DCT HIJ DCT SVL DCT VJF N10 LINTO UN10 BARIS UB11 TUSOR |
| Aircraft | B77L/H-SDE1E2E3FGHIJ2J3J4J5M1RWXY/LB1D1 |
Departure
| Time | 2026-05-07 19:44 |
|---|---|
| Airport | Adolfo Suárez Madrid–Barajas Airport (LEMD) |
Arrival
| Time | 2026-05-07 21:09 |
|---|---|
| Airport | Mohammed V International Airport (GMMN) |
| Time | Latitude | Longitude | Altitude | Speed | Heading |
|---|---|---|---|---|---|
| 2026-05-07 18:50 | 40.46053 | -3.56319 | 1969 ft | 0 kts | 359° |
| 2026-05-07 19:36 | 40.46074 | -3.56323 | 1968 ft | 6 kts | 337° |
| 2026-05-07 19:36 | 40.46109 | -3.56392 | 1968 ft | 12 kts | 280° |
| 2026-05-07 19:36 | 40.46132 | -3.56506 | 1968 ft | 13 kts | 335° |
| 2026-05-07 19:37 | 40.46234 | -3.56512 | 1968 ft | 18 kts | 3° |
| 2026-05-07 19:37 | 40.46399 | -3.56497 | 1968 ft | 28 kts | 4° |
| 2026-05-07 19:37 | 40.46610 | -3.56481 | 1968 ft | 29 kts | 2° |
| 2026-05-07 19:37 | 40.46802 | -3.56466 | 1968 ft | 26 kts | 3° |
| 2026-05-07 19:38 | 40.46976 | -3.56455 | 1968 ft | 23 kts | 358° |
| 2026-05-07 19:38 | 40.47123 | -3.56497 | 1968 ft | 20 kts | 333° |
| 2026-05-07 19:38 | 40.47245 | -3.56601 | 1968 ft | 23 kts | 323° |
| 2026-05-07 19:38 | 40.47370 | -3.56731 | 1968 ft | 16 kts | 307° |
| 2026-05-07 19:39 | 40.47379 | -3.56847 | 1968 ft | 11 kts | 296° |
| 2026-05-07 19:39 | 40.47460 | -3.56938 | 1968 ft | 20 kts | 321° |
| 2026-05-07 19:39 | 40.47607 | -3.57089 | 1968 ft | 32 kts | 321° |
| 2026-05-07 19:39 | 40.47776 | -3.57261 | 1968 ft | 26 kts | 321° |
| 2026-05-07 19:40 | 40.47915 | -3.57404 | 1968 ft | 24 kts | 322° |
| 2026-05-07 19:40 | 40.48047 | -3.57539 | 1968 ft | 24 kts | 321° |
| 2026-05-07 19:40 | 40.48181 | -3.57677 | 1968 ft | 23 kts | 322° |
| 2026-05-07 19:40 | 40.48302 | -3.57798 | 1968 ft | 20 kts | 322° |
| 2026-05-07 19:41 | 40.48420 | -3.57907 | 1968 ft | 22 kts | 327° |
| 2026-05-07 19:41 | 40.48568 | -3.58021 | 1968 ft | 25 kts | 340° |
| 2026-05-07 19:41 | 40.48743 | -3.58051 | 1968 ft | 24 kts | 359° |
| 2026-05-07 19:41 | 40.48918 | -3.58054 | 1968 ft | 28 kts | 359° |
| 2026-05-07 19:42 | 40.49118 | -3.58055 | 1968 ft | 27 kts | 360° |
| 2026-05-07 19:42 | 40.49242 | -3.58017 | 1968 ft | 12 kts | 69° |
| 2026-05-07 19:42 | 40.49250 | -3.57874 | 1968 ft | 20 kts | 90° |
| 2026-05-07 19:42 | 40.49258 | -3.57631 | 1968 ft | 28 kts | 75° |
| 2026-05-07 19:43 | 40.49332 | -3.57463 | 1968 ft | 17 kts | 8° |
| 2026-05-07 19:43 | 40.49346 | -3.57462 | 1968 ft | 0 kts | 359° |
| 2026-05-07 19:43 | 40.49352 | -3.57462 | 1968 ft | 7 kts | 359° |
| 2026-05-07 19:43 | 40.49643 | -3.57463 | 1968 ft | 76 kts | 359° |
| 2026-05-07 19:44 | 40.50395 | -3.57467 | 1969 ft | 139 kts | 359° |
| 2026-05-07 19:44 | 40.51539 | -3.57472 | 2100 ft | 180 kts | 360° |
| 2026-05-07 19:44 | 40.52810 | -3.57481 | 2666 ft | 185 kts | 360° |
| 2026-05-07 19:44 | 40.54159 | -3.57506 | 3237 ft | 196 kts | 360° |
| 2026-05-07 19:45 | 40.55529 | -3.57591 | 3523 ft | 209 kts | 347° |
| 2026-05-07 19:45 | 40.56889 | -3.58424 | 3790 ft | 223 kts | 319° |
| 2026-05-07 19:45 | 40.57889 | -3.60022 | 4123 ft | 235 kts | 300° |
| 2026-05-07 19:45 | 40.58869 | -3.61821 | 4418 ft | 251 kts | 311° |
| 2026-05-07 19:46 | 40.60111 | -3.63463 | 4990 ft | 255 kts | 317° |
| 2026-05-07 19:46 | 40.61468 | -3.65033 | 5438 ft | 266 kts | 319° |
| 2026-05-07 19:46 | 40.62892 | -3.66614 | 5901 ft | 276 kts | 319° |
| 2026-05-07 19:46 | 40.64211 | -3.68444 | 6436 ft | 280 kts | 298° |
| 2026-05-07 19:47 | 40.64819 | -3.70854 | 7032 ft | 279 kts | 272° |
| 2026-05-07 19:47 | 40.64548 | -3.73354 | 7606 ft | 279 kts | 245° |
| 2026-05-07 19:47 | 40.63484 | -3.75443 | 8170 ft | 279 kts | 221° |
| 2026-05-07 19:47 | 40.61839 | -3.76727 | 8689 ft | 281 kts | 195° |
| 2026-05-07 19:48 | 40.59912 | -3.76937 | 9228 ft | 283 kts | 171° |
| 2026-05-07 19:48 | 40.58058 | -3.76029 | 9776 ft | 286 kts | 146° |
| 2026-05-07 19:48 | 40.56663 | -3.74172 | 10198 ft | 294 kts | 122° |
| 2026-05-07 19:48 | 40.55682 | -3.71738 | 10409 ft | 310 kts | 119° |
| 2026-05-07 19:49 | 40.54534 | -3.69242 | 10631 ft | 327 kts | 124° |
| 2026-05-07 19:49 | 40.53192 | -3.66734 | 10891 ft | 342 kts | 127° |
| 2026-05-07 19:49 | 40.51754 | -3.64190 | 11179 ft | 357 kts | 127° |
| 2026-05-07 19:49 | 40.50220 | -3.61538 | 11482 ft | 371 kts | 130° |
| 2026-05-07 19:50 | 40.48382 | -3.59099 | 11888 ft | 382 kts | 141° |
| 2026-05-07 19:50 | 40.46182 | -3.57136 | 12512 ft | 386 kts | 152° |
| 2026-05-07 19:50 | 40.43734 | -3.55767 | 13277 ft | 388 kts | 163° |
| 2026-05-07 19:50 | 40.41104 | -3.55018 | 14065 ft | 390 kts | 174° |
| 2026-05-07 19:51 | 40.38380 | -3.54925 | 14833 ft | 394 kts | 185° |
| 2026-05-07 19:51 | 40.35679 | -3.55516 | 15658 ft | 396 kts | 195° |
| 2026-05-07 19:51 | 40.33104 | -3.56770 | 16476 ft | 398 kts | 206° |
| 2026-05-07 19:51 | 40.30664 | -3.58479 | 17304 ft | 401 kts | 209° |
| 2026-05-07 19:52 | 40.28227 | -3.60247 | 18093 ft | 405 kts | 210° |
| 2026-05-07 19:52 | 40.25751 | -3.62044 | 18773 ft | 410 kts | 210° |
| 2026-05-07 19:52 | 40.23252 | -3.63857 | 19382 ft | 418 kts | 210° |
| 2026-05-07 19:52 | 40.20700 | -3.65706 | 20020 ft | 424 kts | 210° |
| 2026-05-07 19:53 | 40.18103 | -3.67586 | 20670 ft | 429 kts | 211° |
| 2026-05-07 19:53 | 40.15506 | -3.69465 | 21302 ft | 433 kts | 212° |
| 2026-05-07 19:53 | 40.12842 | -3.71391 | 21910 ft | 439 kts | 211° |
| 2026-05-07 19:53 | 40.10187 | -3.73309 | 22501 ft | 444 kts | 212° |
| 2026-05-07 19:54 | 40.07474 | -3.75266 | 23091 ft | 448 kts | 212° |
| 2026-05-07 19:54 | 40.04729 | -3.77245 | 23648 ft | 453 kts | 213° |
| 2026-05-07 19:54 | 40.01961 | -3.79239 | 24288 ft | 456 kts | 213° |
| 2026-05-07 19:54 | 39.99184 | -3.81236 | 24950 ft | 458 kts | 213° |
| 2026-05-07 19:55 | 39.96391 | -3.83244 | 25558 ft | 462 kts | 213° |
| 2026-05-07 19:55 | 39.93596 | -3.85252 | 26166 ft | 464 kts | 214° |
| 2026-05-07 19:55 | 39.90768 | -3.87280 | 26885 ft | 465 kts | 214° |
| 2026-05-07 19:55 | 39.87910 | -3.89328 | 27542 ft | 467 kts | 214° |
| 2026-05-07 19:56 | 39.85083 | -3.91353 | 28045 ft | 472 kts | 215° |
| 2026-05-07 19:56 | 39.82196 | -3.93420 | 28546 ft | 476 kts | 215° |
| 2026-05-07 19:56 | 39.79300 | -3.95490 | 29176 ft | 478 kts | 215° |
| 2026-05-07 19:56 | 39.76403 | -3.97557 | 29912 ft | 477 kts | 215° |
| 2026-05-07 19:57 | 39.73513 | -3.99615 | 30851 ft | 472 kts | 215° |
| 2026-05-07 19:57 | 39.70661 | -4.01642 | 31965 ft | 462 kts | 216° |
| 2026-05-07 19:57 | 39.67879 | -4.03618 | 32753 ft | 458 kts | 216° |
| 2026-05-07 19:57 | 39.65075 | -4.05613 | 32918 ft | 460 kts | 216° |
| 2026-05-07 19:58 | 39.59527 | -4.09549 | 32926 ft | 453 kts | 216° |
| 2026-05-07 19:58 | 39.54005 | -4.13464 | 32930 ft | 455 kts | 216° |
| 2026-05-07 19:59 | 39.48447 | -4.17396 | 32926 ft | 454 kts | 216° |
| 2026-05-07 19:59 | 39.42924 | -4.21297 | 32927 ft | 454 kts | 215° |
| 2026-05-07 20:00 | 39.37386 | -4.25200 | 32925 ft | 452 kts | 216° |
| 2026-05-07 20:00 | 39.31876 | -4.29076 | 32917 ft | 450 kts | 216° |
| 2026-05-07 20:01 | 39.26397 | -4.32927 | 32916 ft | 453 kts | 215° |
| 2026-05-07 20:01 | 39.20891 | -4.36785 | 32910 ft | 449 kts | 215° |
| 2026-05-07 20:02 | 39.15378 | -4.40645 | 32912 ft | 451 kts | 215° |
| 2026-05-07 20:02 | 39.09885 | -4.44483 | 32910 ft | 450 kts | 215° |
| 2026-05-07 20:03 | 39.04419 | -4.48294 | 32904 ft | 450 kts | 215° |
| 2026-05-07 20:03 | 38.98908 | -4.52132 | 32904 ft | 450 kts | 215° |
| 2026-05-07 20:04 | 38.93585 | -4.56245 | 32901 ft | 439 kts | 224° |
| 2026-05-07 20:04 | 38.89177 | -4.61533 | 32902 ft | 436 kts | 230° |
| 2026-05-07 20:05 | 38.84839 | -4.67073 | 32925 ft | 435 kts | 229° |
| 2026-05-07 20:05 | 38.80542 | -4.72536 | 32918 ft | 437 kts | 229° |
| 2026-05-07 20:06 | 38.76267 | -4.77953 | 32911 ft | 434 kts | 229° |
| 2026-05-07 20:06 | 38.71937 | -4.83427 | 32911 ft | 437 kts | 229° |
| 2026-05-07 20:07 | 38.67644 | -4.88841 | 32913 ft | 437 kts | 229° |
| 2026-05-07 20:07 | 38.63303 | -4.94305 | 32907 ft | 436 kts | 229° |
| 2026-05-07 20:08 | 38.58976 | -4.99742 | 32910 ft | 436 kts | 228° |
| 2026-05-07 20:08 | 38.54671 | -5.05140 | 32914 ft | 436 kts | 228° |
| 2026-05-07 20:09 | 38.50075 | -5.10156 | 32907 ft | 440 kts | 218° |
| 2026-05-07 20:10 | 38.41830 | -5.15566 | 32919 ft | 447 kts | 211° |
| 2026-05-07 20:10 | 38.36225 | -5.19046 | 32924 ft | 455 kts | 211° |
| 2026-05-07 20:10 | 38.33337 | -5.20841 | 32920 ft | 466 kts | 211° |
| 2026-05-07 20:11 | 38.30386 | -5.22672 | 32922 ft | 474 kts | 211° |
| 2026-05-07 20:11 | 38.24495 | -5.26314 | 32918 ft | 473 kts | 211° |
| 2026-05-07 20:12 | 38.18565 | -5.29975 | 32914 ft | 475 kts | 211° |
| 2026-05-07 20:12 | 38.12633 | -5.33632 | 32918 ft | 474 kts | 211° |
| 2026-05-07 20:13 | 38.06718 | -5.37271 | 32908 ft | 472 kts | 210° |
| 2026-05-07 20:13 | 38.00790 | -5.40913 | 32912 ft | 474 kts | 211° |
| 2026-05-07 20:14 | 37.94874 | -5.44541 | 32918 ft | 472 kts | 211° |
| 2026-05-07 20:14 | 37.88967 | -5.48157 | 32911 ft | 474 kts | 211° |
| 2026-05-07 20:15 | 37.83028 | -5.51786 | 32920 ft | 473 kts | 211° |
| 2026-05-07 20:15 | 37.77122 | -5.55389 | 32919 ft | 471 kts | 210° |
| 2026-05-07 20:16 | 37.71218 | -5.58984 | 32914 ft | 473 kts | 210° |
| 2026-05-07 20:16 | 37.65264 | -5.62603 | 32915 ft | 472 kts | 210° |
| 2026-05-07 20:17 | 37.59351 | -5.66191 | 32935 ft | 474 kts | 210° |
| 2026-05-07 20:17 | 37.53456 | -5.69760 | 32931 ft | 471 kts | 210° |
| 2026-05-07 20:18 | 37.47559 | -5.73326 | 32929 ft | 471 kts | 210° |
| 2026-05-07 20:18 | 37.41428 | -5.76317 | 32927 ft | 478 kts | 198° |
| 2026-05-07 20:19 | 37.34813 | -5.77674 | 32928 ft | 484 kts | 193° |
| 2026-05-07 20:19 | 37.28141 | -5.78885 | 32931 ft | 482 kts | 193° |
| 2026-05-07 20:20 | 37.21495 | -5.80090 | 32931 ft | 482 kts | 193° |
| 2026-05-07 20:20 | 37.14872 | -5.81289 | 32930 ft | 482 kts | 193° |
| 2026-05-07 20:21 | 37.08223 | -5.82492 | 32927 ft | 483 kts | 193° |
| 2026-05-07 20:21 | 37.01581 | -5.83690 | 32927 ft | 483 kts | 193° |
| 2026-05-07 20:22 | 36.94952 | -5.84884 | 32928 ft | 481 kts | 193° |
| 2026-05-07 20:22 | 36.88315 | -5.86078 | 32935 ft | 482 kts | 193° |
| 2026-05-07 20:23 | 36.81683 | -5.87268 | 32938 ft | 481 kts | 193° |
| 2026-05-07 20:23 | 36.75026 | -5.88462 | 32945 ft | 482 kts | 193° |
| 2026-05-07 20:24 | 36.68409 | -5.89646 | 32952 ft | 482 kts | 193° |
| 2026-05-07 20:24 | 36.61787 | -5.90828 | 32952 ft | 480 kts | 193° |
| 2026-05-07 20:25 | 36.55186 | -5.92005 | 32954 ft | 482 kts | 193° |
| 2026-05-07 20:25 | 36.48534 | -5.93189 | 32945 ft | 481 kts | 193° |
| 2026-05-07 20:26 | 36.41889 | -5.94370 | 32951 ft | 481 kts | 193° |
| 2026-05-07 20:26 | 36.35258 | -5.95546 | 32950 ft | 482 kts | 193° |
| 2026-05-07 20:27 | 36.28660 | -5.96714 | 32952 ft | 481 kts | 193° |
| 2026-05-07 20:27 | 36.22001 | -5.97442 | 32951 ft | 488 kts | 184° |
| 2026-05-07 20:28 | 36.15169 | -5.97111 | 32947 ft | 491 kts | 183° |
| 2026-05-07 20:28 | 36.08367 | -5.96749 | 32946 ft | 490 kts | 183° |
| 2026-05-07 20:29 | 36.01562 | -5.96392 | 32948 ft | 490 kts | 183° |
| 2026-05-07 20:29 | 35.94754 | -5.96037 | 32940 ft | 490 kts | 183° |
| 2026-05-07 20:30 | 35.87914 | -5.95682 | 32953 ft | 490 kts | 183° |
| 2026-05-07 20:30 | 35.81141 | -5.94654 | 32957 ft | 497 kts | 171° |
| 2026-05-07 20:31 | 35.74397 | -5.92438 | 32940 ft | 498 kts | 175° |
| 2026-05-07 20:31 | 35.67598 | -5.92050 | 32949 ft | 487 kts | 191° |
| 2026-05-07 20:32 | 35.61039 | -5.93800 | 32954 ft | 479 kts | 201° |
| 2026-05-07 20:32 | 35.54702 | -5.96067 | 32953 ft | 477 kts | 201° |
| 2026-05-07 20:33 | 35.48316 | -5.98352 | 32955 ft | 476 kts | 201° |
| 2026-05-07 20:33 | 35.42083 | -6.00579 | 32951 ft | 475 kts | 201° |
| 2026-05-07 20:34 | 35.35820 | -6.02813 | 32951 ft | 476 kts | 201° |
| 2026-05-07 20:34 | 35.29445 | -6.05083 | 32954 ft | 475 kts | 201° |
| 2026-05-07 20:35 | 35.23095 | -6.07341 | 32945 ft | 475 kts | 201° |
| 2026-05-07 20:35 | 35.16779 | -6.09584 | 32943 ft | 476 kts | 201° |
| 2026-05-07 20:36 | 35.10418 | -6.11838 | 32942 ft | 476 kts | 201° |
| 2026-05-07 20:36 | 35.04064 | -6.14086 | 32947 ft | 475 kts | 201° |
| 2026-05-07 20:37 | 34.97705 | -6.16332 | 32943 ft | 475 kts | 201° |
| 2026-05-07 20:37 | 34.91380 | -6.18562 | 32941 ft | 473 kts | 201° |
| 2026-05-07 20:38 | 34.85024 | -6.20800 | 32953 ft | 474 kts | 201° |
| 2026-05-07 20:38 | 34.78675 | -6.23032 | 32947 ft | 471 kts | 201° |
| 2026-05-07 20:38 | 34.75594 | -6.24111 | 32944 ft | 458 kts | 201° |
| 2026-05-07 20:39 | 34.72551 | -6.25175 | 32947 ft | 447 kts | 201° |
| 2026-05-07 20:39 | 34.66608 | -6.27259 | 32951 ft | 447 kts | 201° |
| 2026-05-07 20:40 | 34.60667 | -6.29340 | 32946 ft | 445 kts | 201° |
| 2026-05-07 20:40 | 34.54714 | -6.31423 | 32948 ft | 446 kts | 201° |
| 2026-05-07 20:41 | 34.48738 | -6.33511 | 32953 ft | 446 kts | 201° |
| 2026-05-07 20:41 | 34.42769 | -6.35613 | 32959 ft | 446 kts | 201° |
| 2026-05-07 20:42 | 34.36856 | -6.37692 | 32951 ft | 446 kts | 201° |
| 2026-05-07 20:42 | 34.30893 | -6.39785 | 32951 ft | 445 kts | 201° |
| 2026-05-07 20:43 | 34.24900 | -6.41885 | 32287 ft | 446 kts | 201° |
| 2026-05-07 20:43 | 34.21944 | -6.42922 | 31131 ft | 454 kts | 201° |
| 2026-05-07 20:43 | 34.18888 | -6.43993 | 30221 ft | 456 kts | 201° |
| 2026-05-07 20:43 | 34.15892 | -6.45038 | 29751 ft | 449 kts | 201° |
| 2026-05-07 20:44 | 34.12891 | -6.46084 | 29321 ft | 441 kts | 201° |
| 2026-05-07 20:44 | 34.09976 | -6.47100 | 28784 ft | 437 kts | 201° |
| 2026-05-07 20:44 | 34.07085 | -6.48108 | 28202 ft | 434 kts | 201° |
| 2026-05-07 20:44 | 34.04208 | -6.49111 | 27603 ft | 431 kts | 201° |
| 2026-05-07 20:45 | 34.01342 | -6.50113 | 27036 ft | 426 kts | 202° |
| 2026-05-07 20:45 | 33.98581 | -6.51403 | 26422 ft | 419 kts | 210° |
| 2026-05-07 20:45 | 33.96108 | -6.53125 | 25780 ft | 413 kts | 218° |
| 2026-05-07 20:45 | 33.93917 | -6.55264 | 25405 ft | 402 kts | 225° |
| 2026-05-07 20:46 | 33.91935 | -6.57565 | 25276 ft | 387 kts | 226° |
| 2026-05-07 20:46 | 33.90038 | -6.59790 | 25198 ft | 372 kts | 226° |
| 2026-05-07 20:46 | 33.88224 | -6.61918 | 25148 ft | 357 kts | 226° |
| 2026-05-07 20:46 | 33.86492 | -6.63949 | 25105 ft | 342 kts | 226° |
| 2026-05-07 20:47 | 33.84808 | -6.65922 | 25063 ft | 328 kts | 225° |
| 2026-05-07 20:47 | 33.83221 | -6.67780 | 25034 ft | 313 kts | 225° |
| 2026-05-07 20:47 | 33.81692 | -6.69568 | 25001 ft | 298 kts | 226° |
| 2026-05-07 20:47 | 33.80237 | -6.71269 | 24958 ft | 284 kts | 226° |
| 2026-05-07 20:48 | 33.78857 | -6.72883 | 24718 ft | 276 kts | 226° |
| 2026-05-07 20:48 | 33.77481 | -6.74491 | 24279 ft | 276 kts | 226° |
| 2026-05-07 20:48 | 33.76105 | -6.76100 | 23742 ft | 278 kts | 225° |
| 2026-05-07 20:48 | 33.74721 | -6.77716 | 23264 ft | 277 kts | 225° |
| 2026-05-07 20:49 | 33.73353 | -6.79311 | 22862 ft | 275 kts | 226° |
| 2026-05-07 20:49 | 33.71987 | -6.80904 | 22447 ft | 274 kts | 225° |
| 2026-05-07 20:49 | 33.70629 | -6.82486 | 22028 ft | 273 kts | 225° |
| 2026-05-07 20:49 | 33.69277 | -6.84061 | 21596 ft | 272 kts | 225° |
| 2026-05-07 20:50 | 33.67925 | -6.85635 | 21163 ft | 271 kts | 225° |
| 2026-05-07 20:50 | 33.66555 | -6.87196 | 20746 ft | 270 kts | 222° |
| 2026-05-07 20:50 | 33.65068 | -6.88565 | 20361 ft | 269 kts | 216° |
| 2026-05-07 20:50 | 33.63461 | -6.89692 | 19928 ft | 270 kts | 210° |
| 2026-05-07 20:51 | 33.61741 | -6.90565 | 19644 ft | 265 kts | 202° |
| 2026-05-07 20:51 | 33.60034 | -6.91230 | 19616 ft | 249 kts | 202° |
| 2026-05-07 20:51 | 33.58427 | -6.91855 | 19535 ft | 234 kts | 203° |
| 2026-05-07 20:51 | 33.56909 | -6.92454 | 19221 ft | 229 kts | 203° |
| 2026-05-07 20:52 | 33.55408 | -6.93050 | 18752 ft | 230 kts | 203° |
| 2026-05-07 20:52 | 33.53875 | -6.93658 | 18284 ft | 231 kts | 203° |
| 2026-05-07 20:52 | 33.52349 | -6.94261 | 17867 ft | 230 kts | 202° |
| 2026-05-07 20:52 | 33.50844 | -6.94856 | 17456 ft | 229 kts | 202° |
| 2026-05-07 20:53 | 33.49332 | -6.95453 | 17067 ft | 227 kts | 202° |
| 2026-05-07 20:53 | 33.47852 | -6.96038 | 16665 ft | 226 kts | 202° |
| 2026-05-07 20:53 | 33.46349 | -6.96631 | 16293 ft | 224 kts | 201° |
| 2026-05-07 20:53 | 33.44875 | -6.97214 | 15925 ft | 222 kts | 201° |
| 2026-05-07 20:54 | 33.43420 | -6.97788 | 15548 ft | 221 kts | 201° |
| 2026-05-07 20:54 | 33.41961 | -6.98363 | 15173 ft | 219 kts | 200° |
| 2026-05-07 20:54 | 33.40534 | -6.98926 | 14815 ft | 216 kts | 200° |
| 2026-05-07 20:54 | 33.39100 | -6.99491 | 14411 ft | 216 kts | 200° |
| 2026-05-07 20:55 | 33.37705 | -7.00041 | 14066 ft | 213 kts | 199° |
| 2026-05-07 20:55 | 33.36296 | -7.00596 | 13673 ft | 213 kts | 199° |
| 2026-05-07 20:55 | 33.34890 | -7.01150 | 13304 ft | 212 kts | 199° |
| 2026-05-07 20:55 | 33.33487 | -7.01701 | 12917 ft | 211 kts | 199° |
| 2026-05-07 20:56 | 33.32093 | -7.02249 | 12523 ft | 211 kts | 199° |
| 2026-05-07 20:56 | 33.30696 | -7.02799 | 12092 ft | 213 kts | 200° |
| 2026-05-07 20:56 | 33.29277 | -7.03357 | 11700 ft | 213 kts | 200° |
| 2026-05-07 20:56 | 33.27892 | -7.03902 | 11336 ft | 212 kts | 200° |
| 2026-05-07 20:57 | 33.26488 | -7.04453 | 10947 ft | 213 kts | 200° |
| 2026-05-07 20:57 | 33.25068 | -7.05011 | 10559 ft | 213 kts | 200° |
| 2026-05-07 20:57 | 33.23677 | -7.05557 | 10200 ft | 212 kts | 200° |
| 2026-05-07 20:57 | 33.22223 | -7.06130 | 9564 ft | 226 kts | 200° |
| 2026-05-07 20:58 | 33.20695 | -7.06736 | 8885 ft | 241 kts | 202° |
| 2026-05-07 20:58 | 33.19282 | -7.07819 | 8280 ft | 249 kts | 229° |
| 2026-05-07 20:58 | 33.18456 | -7.09612 | 7922 ft | 249 kts | 253° |
| 2026-05-07 20:58 | 33.18087 | -7.11611 | 7632 ft | 248 kts | 256° |
| 2026-05-07 20:59 | 33.17749 | -7.13647 | 7266 ft | 249 kts | 256° |
| 2026-05-07 20:59 | 33.17418 | -7.15644 | 6926 ft | 249 kts | 257° |
| 2026-05-07 20:59 | 33.17079 | -7.17686 | 6585 ft | 249 kts | 257° |
| 2026-05-07 20:59 | 33.16747 | -7.19685 | 6265 ft | 248 kts | 257° |
| 2026-05-07 21:00 | 33.16410 | -7.21710 | 5946 ft | 248 kts | 257° |
| 2026-05-07 21:00 | 33.16075 | -7.23724 | 5627 ft | 247 kts | 258° |
| 2026-05-07 21:00 | 33.15739 | -7.25735 | 5329 ft | 246 kts | 258° |
| 2026-05-07 21:00 | 33.15407 | -7.27727 | 5013 ft | 246 kts | 259° |
| 2026-05-07 21:01 | 33.15075 | -7.29716 | 4685 ft | 247 kts | 259° |
| 2026-05-07 21:01 | 33.14742 | -7.31709 | 4377 ft | 246 kts | 260° |
| 2026-05-07 21:01 | 33.14406 | -7.33713 | 4077 ft | 246 kts | 261° |
| 2026-05-07 21:01 | 33.14074 | -7.35695 | 4001 ft | 241 kts | 261° |
| 2026-05-07 21:02 | 33.13753 | -7.37606 | 3975 ft | 228 kts | 261° |
| 2026-05-07 21:02 | 33.13449 | -7.39409 | 3986 ft | 213 kts | 262° |
| 2026-05-07 21:02 | 33.13164 | -7.41106 | 3994 ft | 208 kts | 262° |
| 2026-05-07 21:02 | 33.12882 | -7.42791 | 4003 ft | 206 kts | 261° |
| 2026-05-07 21:03 | 33.12604 | -7.44444 | 4007 ft | 205 kts | 261° |
| 2026-05-07 21:03 | 33.12325 | -7.46110 | 4009 ft | 205 kts | 261° |
| 2026-05-07 21:03 | 33.12059 | -7.47787 | 4004 ft | 204 kts | 268° |
| 2026-05-07 21:03 | 33.12250 | -7.49430 | 4003 ft | 202 kts | 296° |
| 2026-05-07 21:04 | 33.13061 | -7.50748 | 3996 ft | 199 kts | 323° |
| 2026-05-07 21:04 | 33.14279 | -7.51493 | 3889 ft | 195 kts | 342° |
| 2026-05-07 21:04 | 33.15573 | -7.51973 | 3695 ft | 195 kts | 344° |
| 2026-05-07 21:04 | 33.16863 | -7.52433 | 3613 ft | 191 kts | 344° |
| 2026-05-07 21:05 | 33.18142 | -7.52880 | 3606 ft | 192 kts | 345° |
| 2026-05-07 21:05 | 33.19427 | -7.53318 | 3609 ft | 193 kts | 345° |
| 2026-05-07 21:05 | 33.20721 | -7.53756 | 3568 ft | 195 kts | 345° |
| 2026-05-07 21:05 | 33.22034 | -7.54201 | 3303 ft | 195 kts | 345° |
| 2026-05-07 21:06 | 33.23327 | -7.54641 | 3059 ft | 188 kts | 345° |
| 2026-05-07 21:06 | 33.24530 | -7.55051 | 2807 ft | 175 kts | 345° |
| 2026-05-07 21:06 | 33.25696 | -7.55448 | 2588 ft | 170 kts | 345° |
| 2026-05-07 21:06 | 33.26835 | -7.55835 | 2359 ft | 168 kts | 345° |
| 2026-05-07 21:07 | 33.27926 | -7.56207 | 2143 ft | 160 kts | 346° |
| 2026-05-07 21:07 | 33.28971 | -7.56563 | 1933 ft | 151 kts | 346° |
| 2026-05-07 21:07 | 33.29964 | -7.56901 | 1741 ft | 149 kts | 345° |
| 2026-05-07 21:07 | 33.30973 | -7.57251 | 1541 ft | 150 kts | 346° |
| 2026-05-07 21:08 | 33.31975 | -7.57587 | 1332 ft | 151 kts | 346° |
| 2026-05-07 21:08 | 33.32993 | -7.57934 | 1122 ft | 149 kts | 346° |
| 2026-05-07 21:08 | 33.33992 | -7.58268 | 935 ft | 150 kts | 345° |
| 2026-05-07 21:08 | 33.34998 | -7.58612 | 730 ft | 150 kts | 346° |
| 2026-05-07 21:09 | 33.35957 | -7.58936 | 670 ft | 127 kts | 343° |
| 2026-05-07 21:09 | 33.36661 | -7.59178 | 670 ft | 82 kts | 344° |
| 2026-05-07 21:09 | 33.37064 | -7.59314 | 670 ft | 38 kts | 346° |
| 2026-05-07 21:09 | 33.37266 | -7.59327 | 670 ft | 27 kts | 8° |
| 2026-05-07 21:10 | 33.37439 | -7.59288 | 669 ft | 22 kts | 12° |
| 2026-05-07 21:10 | 33.37582 | -7.59252 | 669 ft | 19 kts | 12° |
| 2026-05-07 21:10 | 33.37709 | -7.59221 | 670 ft | 17 kts | 14° |
| 2026-05-07 21:10 | 33.37797 | -7.59149 | 669 ft | 14 kts | 52° |
| 2026-05-07 21:11 | 33.37830 | -7.59040 | 670 ft | 12 kts | 75° |
| 2026-05-07 21:11 | 33.37856 | -7.58935 | 669 ft | 15 kts | 73° |
| 2026-05-07 21:11 | 33.37876 | -7.58857 | 669 ft | 0 kts | 73° |
| 2026-05-07 21:12 | 33.37876 | -7.58856 | 669 ft | 0 kts | 73° |
| 2026-05-07 21:12 | 33.37877 | -7.58841 | 669 ft | 4 kts | 95° |
| 2026-05-07 21:12 | 33.37843 | -7.58802 | 669 ft | 10 kts | 158° |
| 2026-05-07 21:13 | 33.37760 | -7.58773 | 669 ft | 14 kts | 168° |
| 2026-05-07 21:13 | 33.37674 | -7.58743 | 670 ft | 16 kts | 163° |
| 2026-05-07 21:13 | 33.37526 | -7.58692 | 669 ft | 26 kts | 164° |
| 2026-05-07 21:13 | 33.37359 | -7.58635 | 670 ft | 23 kts | 164° |
| 2026-05-07 21:14 | 33.37214 | -7.58584 | 670 ft | 20 kts | 164° |
| 2026-05-07 21:14 | 33.37082 | -7.58540 | 670 ft | 18 kts | 164° |
| 2026-05-07 21:14 | 33.36966 | -7.58500 | 670 ft | 16 kts | 164° |
| 2026-05-07 21:14 | 33.36903 | -7.58476 | 670 ft | 5 kts | 150° |
| 2026-05-07 21:15 | 33.36898 | -7.58439 | 670 ft | 5 kts | 75° |
| 2026-05-07 21:15 | 33.36914 | -7.58369 | 670 ft | 11 kts | 75° |
| 2026-05-07 21:15 | 33.36939 | -7.58260 | 670 ft | 14 kts | 79° |
| 2026-05-07 21:15 | 33.36897 | -7.58179 | 670 ft | 12 kts | 163° |
| 2026-05-07 21:16 | 33.36816 | -7.58153 | 670 ft | 11 kts | 165° |